Time;durP1;ratioP1;P1;durP2;ratioP2;P2;SDS_P1;SDS_P2;PMS_P1;PMS_P2;Temp;Humidity;BMP_temperature;BMP_pressure;BME280_temperature;BME280_humidity;BME280_pressure;Samples;Min_cycle;Max_cycle;Signal;HPM_P1;HPM_P2
2023/11/06 00:00:12;;;;;;;10.02;4.50;;;11.10;99.90;;;;;;2603505;54;20038;31
2023/11/06 00:02:46;;;;;;;8.18;4.43;;;11.10;99.90;;;;;;2621641;46;20763;31
2023/11/06 00:05:21;;;;;;;9.05;5.30;;;11.10;99.90;;;;;;2603233;54;20049;31
2023/11/06 00:07:58;;;;;;;2.33;1.33;;;11.10;99.90;;;;;;2621575;46;20026;31
2023/11/06 00:10:35;;;;;;;;;;;11.10;99.90;;;;;;2621972;46;20143;31
2023/11/06 00:13:10;;;;;;;3.22;1.75;;;11.10;99.90;;;;;;2603174;54;20804;31
2023/11/06 00:15:47;;;;;;;2.65;0.50;;;11.10;99.90;;;;;;2603011;54;20033;31
2023/11/06 00:18:23;;;;;;;2.25;1.30;;;11.10;99.90;;;;;;2621935;46;20889;31
2023/11/06 00:20:59;;;;;;;;;;;11.10;99.90;;;;;;2603170;54;20056;31
2023/11/06 00:23:34;;;;;;;1.38;0.80;;;11.10;99.90;;;;;;2621954;46;19934;31
2023/11/06 00:26:13;;;;;;;0.80;0.40;;;11.10;99.90;;;;;;2603249;54;20916;31
2023/11/06 00:28:58;;;;;;;0.50;0.40;;;11.00;99.90;;;;;;2603478;54;20256;31
2023/11/06 00:31:41;;;;;;;1.20;0.40;;;11.00;99.90;;;;;;2603069;54;20906;31
2023/11/06 00:34:16;;;;;;;1.33;0.40;;;11.00;99.90;;;;;;2621524;46;20057;31
2023/11/06 00:36:50;;;;;;;1.83;0.77;;;11.00;99.90;;;;;;2621558;46;19986;31
2023/11/06 00:39:24;;;;;;;0.70;0.20;;;11.00;99.90;;;;;;2621331;46;21657;31
2023/11/06 00:42:02;;;;;;;0.25;0.20;;;11.00;99.90;;;;;;2603338;54;20046;31
2023/11/06 00:44:37;;;;;;;1.60;0.43;;;11.00;99.90;;;;;;2622158;46;19976;31
2023/11/06 00:47:12;;;;;;;2.95;0.65;;;11.00;99.90;;;;;;2603235;54;20903;31
2023/11/06 00:49:47;;;;;;;1.25;0.45;;;11.00;99.90;;;;;;2621837;46;20037;31
2023/11/06 00:52:21;;;;;;;0.60;0.50;;;11.00;99.90;;;;;;2621569;46;20023;31
2023/11/06 00:54:56;;;;;;;0.90;0.20;;;11.00;99.90;;;;;;2603081;54;20955;31
2023/11/06 00:57:33;;;;;;;1.80;0.13;;;11.00;99.90;;;;;;2621587;46;20859;31
2023/11/06 01:00:15;;;;;;;0.75;0.20;;;10.90;99.90;;;;;;2603049;54;20953;31
2023/11/06 01:02:50;;;;;;;0.35;0.20;;;11.00;99.90;;;;;;2603198;54;20037;31
2023/11/06 01:05:25;;;;;;;0.73;0.30;;;11.00;99.90;;;;;;2602872;54;20092;31
2023/11/06 01:08:01;;;;;;;1.20;0.40;;;11.00;99.90;;;;;;2602911;54;20038;31
2023/11/06 01:10:37;;;;;;;0.50;0.20;;;11.00;99.90;;;;;;2602881;54;19938;31
2023/11/06 01:13:15;;;;;;;0.50;0.20;;;11.00;99.90;;;;;;2621663;46;20104;31
2023/11/06 01:15:49;;;;;;;0.68;0.20;;;11.00;99.90;;;;;;2603108;54;20093;31
2023/11/06 01:18:23;;;;;;;1.35;0.30;;;11.10;99.90;;;;;;2603177;54;20917;31
2023/11/06 01:20:58;;;;;;;1.40;0.20;;;11.10;99.90;;;;;;2621686;46;20866;31
2023/11/06 01:23:34;;;;;;;0.70;0.40;;;11.10;99.90;;;;;;2602892;54;20970;31
2023/11/06 01:26:08;;;;;;;;;;;11.10;99.90;;;;;;2603190;54;20039;31
2023/11/06 01:28:45;;;;;;;2.73;0.30;;;11.10;98.90;;;;;;2621283;47;19941;31
2023/11/06 01:31:20;;;;;;;0.65;0.30;;;11.10;98.30;;;;;;2603160;54;20250;31
2023/11/06 01:33:55;;;;;;;1.20;0.30;;;11.10;98.80;;;;;;2602729;54;20053;31
2023/11/06 01:36:30;;;;;;;0.40;0.23;;;11.20;98.10;;;;;;2602820;54;20081;31
2023/11/06 01:39:06;;;;;;;2.20;0.30;;;11.20;96.40;;;;;;2602829;54;20672;31
2023/11/06 01:41:40;;;;;;;3.40;0.68;;;11.20;96.30;;;;;;2602941;54;20042;31
2023/11/06 01:44:18;;;;;;;1.30;0.25;;;11.20;95.00;;;;;;2602814;54;20824;31
2023/11/06 01:46:53;;;;;;;1.02;0.20;;;11.20;94.30;;;;;;2603173;54;20030;31
2023/11/06 01:49:28;;;;;;;1.13;0.17;;;11.10;95.10;;;;;;2622453;46;20856;31
2023/11/06 01:52:03;;;;;;;0.40;0.20;;;11.20;92.80;;;;;;2603798;54;20165;31
2023/11/06 01:54:38;;;;;;;0.80;0.20;;;11.20;93.00;;;;;;2603620;54;20103;31
2023/11/06 01:57:13;;;;;;;1.20;0.30;;;11.20;93.70;;;;;;2603573;54;21017;31
2023/11/06 01:59:50;;;;;;;1.30;0.20;;;11.20;92.80;;;;;;2603606;54;20034;31
2023/11/06 02:02:27;;;;;;;1.05;0.30;;;11.20;91.70;;;;;;2603792;54;20358;31
2023/11/06 02:05:03;;;;;;;1.15;0.22;;;11.10;92.60;;;;;;2622697;46;20939;31
2023/11/06 02:07:38;;;;;;;1.40;0.30;;;11.10;91.80;;;;;;2603829;54;20132;31
2023/11/06 02:10:16;;;;;;;0.38;0.30;;;11.10;91.80;;;;;;2622005;46;20774;31
2023/11/06 02:12:51;;;;;;;0.55;0.20;;;11.10;90.80;;;;;;2603553;54;20937;31
2023/11/06 02:15:30;;;;;;;0.40;0.10;;;11.10;92.20;;;;;;2603833;54;20048;31
2023/11/06 02:18:08;;;;;;;1.48;0.20;;;11.10;94.40;;;;;;2773456;31;20648;31
2023/11/06 02:20:43;;;;;;;0.63;0.20;;;11.00;98.60;;;;;;2622004;46;20907;31
2023/11/06 02:23:20;;;;;;;0.50;0.20;;;11.00;99.90;;;;;;2603635;54;20589;31
2023/11/06 02:25:55;;;;;;;2.30;0.35;;;11.00;99.90;;;;;;2622105;46;20022;31
2023/11/06 02:28:30;;;;;;;0.80;0.20;;;11.00;99.90;;;;;;2603752;54;20920;31
2023/11/06 02:31:05;;;;;;;2.80;0.40;;;10.90;98.50;;;;;;2603679;54;20823;31
2023/11/06 02:33:40;;;;;;;0.15;0.10;;;10.90;98.20;;;;;;2603662;54;20033;31
2023/11/06 02:36:15;;;;;;;0.73;0.22;;;10.90;97.70;;;;;;2603599;54;20053;31
2023/11/06 02:38:52;;;;;;;1.20;0.50;;;10.90;97.40;;;;;;2603680;54;20030;31
2023/11/06 02:41:27;;;;;;;2.00;0.50;;;10.90;94.60;;;;;;2603522;54;20060;31
2023/11/06 02:44:03;;;;;;;1.15;0.30;;;10.90;93.70;;;;;;2603468;54;21141;31
2023/11/06 02:46:38;;;;;;;0.40;0.20;;;10.90;93.20;;;;;;2603455;54;20057;31
2023/11/06 02:49:13;;;;;;;1.10;0.30;;;10.90;92.70;;;;;;2603404;54;20030;31
2023/11/06 02:51:48;;;;;;;0.40;0.20;;;10.90;91.70;;;;;;2603516;54;20855;31
2023/11/06 02:54:25;;;;;;;1.08;0.20;;;10.90;89.70;;;;;;2603392;54;20912;31
2023/11/06 02:57:00;;;;;;;0.95;0.20;;;10.90;83.70;;;;;;2603615;54;20038;31
2023/11/06 02:59:36;;;;;;;1.65;0.40;;;10.90;82.10;;;;;;2603379;54;19941;31
2023/11/06 03:02:10;;;;;;;0.75;0.10;;;10.90;76.60;;;;;;2603560;54;20135;31
2023/11/06 03:04:45;;;;;;;2.30;0.50;;;10.90;78.00;;;;;;2603359;54;20081;31
2023/11/06 03:07:20;;;;;;;2.10;0.28;;;10.90;75.40;;;;;;2603477;54;20049;31
2023/11/06 03:09:57;;;;;;;0.77;0.20;;;10.90;76.90;;;;;;2622056;46;20906;31
2023/11/06 03:12:32;;;;;;;0.70;0.20;;;10.90;73.10;;;;;;2603909;54;20034;31
2023/11/06 03:15:10;;;;;;;1.23;0.47;;;10.90;74.20;;;;;;2603708;54;20844;31
2023/11/06 03:17:47;;;;;;;2.60;0.20;;;10.90;74.10;;;;;;2603306;54;20918;31
2023/11/06 03:20:21;;;;;;;0.57;0.20;;;10.90;72.80;;;;;;2701812;39;21592;31
2023/11/06 03:22:56;;;;;;;0.70;0.20;;;10.80;72.90;;;;;;2603538;54;20049;31
2023/11/06 03:25:33;;;;;;;3.45;0.20;;;10.80;70.40;;;;;;2603479;54;20049;31
2023/11/06 03:28:08;;;;;;;0.65;0.10;;;10.70;71.80;;;;;;2603683;54;20820;31
2023/11/06 03:30:44;;;;;;;0.25;0.20;;;10.70;72.20;;;;;;2603468;54;20035;31
2023/11/06 03:33:19;;;;;;;2.80;0.30;;;10.70;70.70;;;;;;2603151;54;20928;31
2023/11/06 03:35:54;;;;;;;1.15;0.20;;;10.60;72.30;;;;;;2603634;54;20560;31
2023/11/06 03:38:28;;;;;;;1.45;0.10;;;10.60;71.20;;;;;;2622111;46;20892;31
2023/11/06 03:41:07;;;;;;;0.25;0.10;;;10.60;72.50;;;;;;2603521;54;20085;31
2023/11/06 03:43:44;;;;;;;0.80;0.20;;;10.60;71.60;;;;;;2702068;39;20458;31
2023/11/06 03:46:20;;;;;;;0.60;0.20;;;10.60;72.70;;;;;;2603408;54;20066;31
2023/11/06 03:48:54;;;;;;;0.25;0.20;;;10.60;73.20;;;;;;2603404;54;20592;31
2023/11/06 03:51:29;;;;;;;1.48;0.20;;;10.60;72.30;;;;;;2603397;54;20838;31
2023/11/06 03:54:04;;;;;;;0.80;0.20;;;10.50;71.80;;;;;;2603276;54;20030;31
2023/11/06 03:56:40;;;;;;;0.30;0.20;;;10.50;72.60;;;;;;2773569;31;20595;31
2023/11/06 03:59:15;;;;;;;0.65;0.25;;;10.50;72.30;;;;;;2603160;54;20890;31
2023/11/06 04:01:50;;;;;;;1.05;0.20;;;10.40;72.90;;;;;;2603617;54;20572;31
2023/11/06 04:04:25;;;;;;;0.82;0.20;;;10.40;73.10;;;;;;2603221;54;20082;31
2023/11/06 04:07:00;;;;;;;0.95;0.10;;;10.40;74.70;;;;;;2603621;54;20590;31
2023/11/06 04:09:35;;;;;;;3.10;0.20;;;10.30;74.40;;;;;;2603098;54;20492;31
2023/11/06 04:12:13;;;;;;;3.13;0.20;;;10.30;74.70;;;;;;2603275;54;20057;31
2023/11/06 04:14:47;;;;;;;0.60;0.10;;;10.30;75.70;;;;;;2603596;54;20099;31
2023/11/06 04:17:24;;;;;;;0.25;0.15;;;10.20;77.00;;;;;;2701821;39;21577;31
2023/11/06 04:19:59;;;;;;;0.32;0.20;;;10.20;77.10;;;;;;2603171;54;20030;31
2023/11/06 04:22:34;;;;;;;0.63;0.10;;;10.20;76.20;;;;;;2621595;46;20026;31
2023/11/06 04:25:11;;;;;;;1.70;0.10;;;10.20;77.70;;;;;;2603062;54;20081;31
2023/11/06 04:27:48;;;;;;;1.13;0.30;;;10.10;78.40;;;;;;2603131;54;20022;31
2023/11/06 04:30:24;;;;;;;0.70;0.20;;;10.10;81.00;;;;;;2603237;54;20916;31
2023/11/06 04:32:59;;;;;;;0.90;0.15;;;10.00;80.10;;;;;;2603402;54;20874;31
2023/11/06 04:35:36;;;;;;;5.20;0.30;;;10.00;82.10;;;;;;2603120;54;20933;31
2023/11/06 04:38:11;;;;;;;0.68;0.20;;;10.00;82.30;;;;;;2603072;54;21397;31
2023/11/06 04:40:47;;;;;;;0.43;0.20;;;10.00;84.30;;;;;;2603257;54;20053;31
2023/11/06 04:43:25;;;;;;;0.20;0.20;;;9.90;83.50;;;;;;2603197;54;20943;31
2023/11/06 04:46:00;;;;;;;1.00;0.17;;;9.90;84.40;;;;;;2603080;54;20044;31
2023/11/06 04:48:35;;;;;;;0.43;0.20;;;9.90;85.40;;;;;;2602963;54;20085;31
2023/11/06 04:51:10;;;;;;;0.53;0.20;;;9.90;87.10;;;;;;2603168;54;20049;31
2023/11/06 04:53:45;;;;;;;1.00;0.77;;;9.80;87.20;;;;;;2621626;46;20065;31
2023/11/06 04:56:20;;;;;;;0.03;0.03;;;9.80;87.10;;;;;;2602871;54;20030;31
2023/11/06 04:58:57;;;;;;;0.47;0.20;;;9.80;87.20;;;;;;2603026;54;20048;31
2023/11/06 05:01:32;;;;;;;0.93;0.30;;;9.80;88.50;;;;;;2603302;54;20089;31
2023/11/06 05:04:07;;;;;;;4.20;0.30;;;9.80;89.50;;;;;;2621562;46;20034;31
2023/11/06 05:06:42;;;;;;;0.50;0.10;;;9.80;89.80;;;;;;2603125;54;20092;31
2023/11/06 05:09:24;;;;;;;3.90;0.30;;;9.70;89.40;;;;;;2603353;54;20117;31
2023/11/06 05:11:59;;;;;;;1.45;0.13;;;9.70;90.30;;;;;;2621123;46;20109;31
2023/11/06 05:14:37;;;;;;;0.70;0.30;;;9.70;90.10;;;;;;2602944;54;20030;31
2023/11/06 05:17:11;;;;;;;2.22;0.40;;;9.70;90.40;;;;;;2621533;46;20934;31
2023/11/06 05:19:46;;;;;;;1.42;0.30;;;9.70;90.10;;;;;;2602874;54;20034;31
2023/11/06 05:22:20;;;;;;;0.30;0.10;;;9.70;91.20;;;;;;2602706;54;20928;31
2023/11/06 05:24:55;;;;;;;0.38;0.15;;;9.70;90.70;;;;;;2603071;54;20034;31
2023/11/06 05:27:30;;;;;;;0.82;0.20;;;9.70;90.80;;;;;;2603168;54;20023;31
2023/11/06 05:30:10;;;;;;;0.70;0.10;;;9.60;90.90;;;;;;2602890;54;20026;31
2023/11/06 05:32:46;;;;;;;0.52;0.20;;;9.60;91.20;;;;;;2602865;54;20956;31
2023/11/06 05:35:21;;;;;;;0.50;0.20;;;9.60;91.70;;;;;;2603209;54;20049;31
2023/11/06 05:37:56;;;;;;;1.00;0.20;;;9.60;92.00;;;;;;2603074;54;20108;31
2023/11/06 05:40:31;;;;;;;0.85;0.20;;;9.60;92.30;;;;;;2603171;54;20023;31
2023/11/06 05:43:07;;;;;;;0.60;0.25;;;9.60;92.40;;;;;;2621176;47;20034;31
2023/11/06 05:45:45;;;;;;;2.38;0.43;;;9.50;92.70;;;;;;2602767;54;20030;31
2023/11/06 05:48:19;;;;;;;1.45;0.40;;;9.50;93.20;;;;;;2621241;47;20120;31
2023/11/06 05:50:54;;;;;;;0.80;0.40;;;9.50;93.80;;;;;;2602756;54;20034;31
2023/11/06 05:53:29;;;;;;;0.68;0.38;;;9.50;94.40;;;;;;2602860;54;20058;31
2023/11/06 05:56:04;;;;;;;1.30;0.45;;;9.40;95.00;;;;;;2621655;47;20034;31
2023/11/06 05:58:39;;;;;;;0.65;0.30;;;9.40;95.70;;;;;;2621593;47;20030;31
2023/11/06 06:01:17;;;;;;;0.75;0.30;;;9.40;95.80;;;;;;2602938;54;20912;31
2023/11/06 06:03:53;;;;;;;2.40;0.30;;;9.40;96.00;;;;;;2603028;54;20027;31
2023/11/06 06:06:29;;;;;;;1.35;0.30;;;9.40;96.30;;;;;;2602972;54;20919;31
2023/11/06 06:09:09;;;;;;;2.15;0.25;;;9.40;96.70;;;;;;2602821;54;20112;31
2023/11/06 06:11:49;;;;;;;1.55;0.30;;;9.40;96.90;;;;;;2602879;54;20831;31
2023/11/06 06:14:29;;;;;;;1.83;0.40;;;9.30;99.30;;;;;;2602595;54;20911;31
2023/11/06 06:17:15;;;;;;;2.00;0.50;;;9.40;98.00;;;;;;2602689;54;20950;31
2023/11/06 06:19:50;;;;;;;10.07;1.30;;;9.50;99.90;;;;;;2602889;54;20030;31
2023/11/06 06:22:26;;;;;;;6.43;1.35;;;9.50;99.90;;;;;;2621607;47;20081;31
2023/11/06 06:25:02;;;;;;;22.25;2.55;;;9.50;99.10;;;;;;2602927;54;20789;31
2023/11/06 06:27:37;;;;;;;36.20;3.55;;;9.50;99.40;;;;;;2621364;47;20033;31
2023/11/06 06:30:14;;;;;;;22.95;2.95;;;9.50;99.50;;;;;;2602704;54;20941;31
2023/11/06 06:32:55;;;;;;;6.83;2.10;;;9.50;99.10;;;;;;2621650;47;20077;31
2023/11/06 06:35:31;;;;;;;6.30;1.07;;;9.50;99.20;;;;;;2603518;54;19984;31
2023/11/06 06:38:07;;;;;;;2.60;0.30;;;9.50;99.00;;;;;;2603987;54;20030;31
2023/11/06 06:40:43;;;;;;;0.90;0.38;;;9.50;99.10;;;;;;2603599;54;20029;31
2023/11/06 06:43:18;;;;;;;1.52;0.88;;;9.50;99.30;;;;;;2603718;54;20848;31
2023/11/06 06:45:53;;;;;;;;;;;9.50;99.10;;;;;;2603920;54;20901;31
2023/11/06 06:48:32;;;;;;;1.85;0.40;;;9.50;99.10;;;;;;2603675;54;20001;31
2023/11/06 06:51:09;;;;;;;0.70;0.35;;;9.50;98.60;;;;;;2603929;54;20034;31
2023/11/06 06:53:46;;;;;;;1.77;0.30;;;9.50;98.70;;;;;;2603534;54;20025;31
2023/11/06 06:56:22;;;;;;;2.28;0.32;;;9.50;98.80;;;;;;2603466;54;20112;31
2023/11/06 06:58:58;;;;;;;2.20;0.75;;;9.90;99.90;;;;;;2603538;54;19938;31
2023/11/06 07:01:33;;;;;;;0.45;0.20;;;10.10;94.60;;;;;;2603473;54;20136;31
2023/11/06 07:04:12;;;;;;;1.83;0.50;;;10.50;99.90;;;;;;2603671;54;20855;31
2023/11/06 07:06:48;;;;;;;0.63;0.45;;;10.80;89.40;;;;;;2603761;54;20114;31
2023/11/06 07:09:25;;;;;;;4.53;0.50;;;10.90;89.00;;;;;;2603636;54;20913;31
2023/11/06 07:12:00;;;;;;;1.55;0.60;;;11.00;83.10;;;;;;2603443;54;20849;31
2023/11/06 07:14:36;;;;;;;1.77;0.30;;;11.50;90.80;;;;;;2603618;54;20112;31
2023/11/06 07:17:11;;;;;;;3.25;0.55;;;12.10;86.90;;;;;;2603421;54;20034;31
2023/11/06 07:19:49;;;;;;;1.70;0.65;;;12.70;74.80;;;;;;2603276;54;20939;31
2023/11/06 07:22:24;;;;;;;2.17;0.30;;;13.30;64.30;;;;;;2603478;54;20033;31
2023/11/06 07:25:00;;;;;;;0.82;0.60;;;13.90;55.00;;;;;;2621716;46;20895;31
2023/11/06 07:27:38;;;;;;;1.27;0.40;;;14.30;51.30;;;;;;2603587;54;20031;31
2023/11/06 07:30:15;;;;;;;1.35;0.50;;;14.80;46.50;;;;;;2603587;54;19938;31
2023/11/06 07:32:50;;;;;;;2.22;0.43;;;14.90;39.10;;;;;;2603544;54;20061;31
2023/11/06 07:35:28;;;;;;;3.25;0.45;;;15.00;40.00;;;;;;2603099;54;20508;31
2023/11/06 07:38:03;;;;;;;2.05;0.50;;;15.00;34.50;;;;;;2603338;54;20037;31
2023/11/06 07:40:39;;;;;;;2.80;0.70;;;14.70;31.40;;;;;;2621771;46;20648;31
2023/11/06 07:43:16;;;;;;;0.98;0.40;;;14.40;33.50;;;;;;2603363;54;20269;31
2023/11/06 07:45:52;;;;;;;2.58;0.90;;;14.20;36.20;;;;;;2603149;54;20096;31
2023/11/06 07:48:28;;;;;;;1.73;0.50;;;14.20;69.70;;;;;;2622060;46;20042;31
2023/11/06 07:51:07;;;;;;;1.52;0.47;;;14.10;42.30;;;;;;2603327;54;20041;31
2023/11/06 07:53:43;;;;;;;1.75;0.50;;;14.00;42.00;;;;;;2603291;54;20117;31
2023/11/06 07:56:19;;;;;;;3.33;0.40;;;13.80;40.50;;;;;;2621849;46;20089;31
2023/11/06 07:58:55;;;;;;;0.70;0.20;;;13.70;43.80;;;;;;2603304;54;20634;31
2023/11/06 08:01:31;;;;;;;1.85;0.50;;;13.80;43.60;;;;;;2621461;46;20841;31
2023/11/06 08:04:07;;;;;;;1.05;0.20;;;13.70;43.80;;;;;;2603288;54;20922;31
2023/11/06 08:06:46;;;;;;;1.93;0.40;;;13.70;45.60;;;;;;2603292;54;20026;31
2023/11/06 08:09:20;;;;;;;0.55;0.20;;;13.70;44.50;;;;;;2603446;54;20836;31
2023/11/06 08:11:56;;;;;;;2.33;0.20;;;13.60;43.00;;;;;;2621827;46;20029;31
2023/11/06 08:14:30;;;;;;;0.90;0.20;;;13.50;42.00;;;;;;2603386;54;20053;31
2023/11/06 08:17:08;;;;;;;1.77;0.30;;;13.40;44.10;;;;;;2621913;46;20084;31
2023/11/06 08:19:44;;;;;;;1.20;0.40;;;13.30;45.50;;;;;;2603352;54;20687;31
2023/11/06 08:22:23;;;;;;;1.77;0.20;;;13.30;46.10;;;;;;2603339;54;20009;31
2023/11/06 08:24:57;;;;;;;2.67;0.40;;;13.20;44.90;;;;;;2603422;54;20573;31
2023/11/06 08:27:33;;;;;;;2.30;0.40;;;13.10;44.60;;;;;;2603251;54;19965;31
2023/11/06 08:30:09;;;;;;;1.92;0.45;;;13.10;45.90;;;;;;2701788;39;20560;31
2023/11/06 08:32:45;;;;;;;2.28;0.40;;;13.00;47.00;;;;;;2603210;54;20030;31
2023/11/06 08:35:20;;;;;;;1.63;0.28;;;13.00;49.30;;;;;;2603284;54;20121;31
2023/11/06 08:38:02;;;;;;;2.42;0.30;;;13.00;51.00;;;;;;2603148;54;20131;31
2023/11/06 08:40:37;;;;;;;0.95;0.30;;;13.00;49.60;;;;;;2603141;54;20918;31
2023/11/06 08:43:13;;;;;;;2.22;0.30;;;13.00;48.80;;;;;;2603407;54;20829;31
2023/11/06 08:45:50;;;;;;;1.75;0.40;;;13.00;50.40;;;;;;2603203;54;20023;31
2023/11/06 08:48:26;;;;;;;1.63;0.45;;;13.00;49.20;;;;;;2602881;54;20105;31
2023/11/06 08:51:02;;;;;;;0.80;0.20;;;13.00;49.90;;;;;;2621793;46;20035;31
2023/11/06 08:53:41;;;;;;;1.92;0.30;;;12.90;50.00;;;;;;2621762;46;20038;31
2023/11/06 08:56:23;;;;;;;2.45;0.40;;;12.90;51.20;;;;;;2603109;54;20789;31
2023/11/06 08:58:59;;;;;;;1.67;0.40;;;12.90;52.40;;;;;;2603397;54;20085;31
2023/11/06 09:01:35;;;;;;;1.20;0.40;;;12.90;52.50;;;;;;2603041;54;20734;31
2023/11/06 09:04:11;;;;;;;2.00;0.30;;;12.90;51.40;;;;;;2603205;54;20053;31
2023/11/06 09:06:48;;;;;;;0.82;0.32;;;12.90;52.10;;;;;;2621927;46;20554;31
2023/11/06 09:09:27;;;;;;;2.55;0.50;;;12.90;50.10;;;;;;2622083;46;20026;31
2023/11/06 09:12:02;;;;;;;0.70;0.30;;;12.90;52.10;;;;;;2603136;54;20889;31
2023/11/06 09:14:39;;;;;;;1.48;0.30;;;12.90;51.80;;;;;;2603232;54;20026;31
2023/11/06 09:17:15;;;;;;;1.40;0.50;;;12.90;53.70;;;;;;2603240;54;20052;31
2023/11/06 09:19:49;;;;;;;;;;;12.90;54.00;;;;;;2603255;54;20030;31
2023/11/06 09:22:25;;;;;;;2.72;0.40;;;12.90;57.00;;;;;;2602814;54;19934;31
2023/11/06 09:25:05;;;;;;;2.10;0.37;;;12.90;56.10;;;;;;2621387;46;20112;31
2023/11/06 09:27:40;;;;;;;2.08;0.20;;;12.90;57.70;;;;;;2603110;54;20030;31
2023/11/06 09:30:17;;;;;;;56.58;6.72;;;12.90;59.00;;;;;;2602922;54;20938;31
2023/11/06 09:32:53;;;;;;;4.25;1.15;;;13.10;71.60;;;;;;2621515;47;21468;31
2023/11/06 09:35:30;;;;;;;5.00;1.05;;;13.10;63.10;;;;;;2602143;54;20034;31
2023/11/06 09:38:05;;;;;;;4.45;0.50;;;13.20;61.20;;;;;;2603195;54;20026;31
2023/11/06 09:40:46;;;;;;;2.00;0.35;;;13.10;59.10;;;;;;2602964;54;20892;31
2023/11/06 09:43:21;;;;;;;1.20;0.30;;;13.10;57.90;;;;;;2602992;54;20883;31
2023/11/06 09:45:57;;;;;;;1.20;0.30;;;13.00;59.80;;;;;;2603093;54;19934;31
2023/11/06 09:48:32;;;;;;;1.15;0.45;;;13.00;61.00;;;;;;2602928;54;20022;31
2023/11/06 09:51:13;;;;;;;3.27;0.60;;;13.00;60.20;;;;;;2602971;54;20080;31
2023/11/06 09:53:50;;;;;;;1.37;0.23;;;13.00;59.00;;;;;;2603066;54;21390;31
2023/11/06 09:56:28;;;;;;;1.05;0.35;;;13.00;57.40;;;;;;2603247;54;20030;31
2023/11/06 09:59:05;;;;;;;1.17;0.40;;;13.00;58.70;;;;;;2602558;54;20030;31
2023/11/06 10:01:40;;;;;;;0.50;0.30;;;13.00;58.00;;;;;;2602899;54;20031;31
2023/11/06 10:04:15;;;;;;;3.53;0.40;;;13.00;60.90;;;;;;2602859;54;20912;31
2023/11/06 10:06:52;;;;;;;1.95;0.50;;;13.00;59.70;;;;;;2602949;54;21386;31
2023/11/06 10:09:28;;;;;;;4.03;0.75;;;13.00;60.70;;;;;;2603800;54;20839;31
2023/11/06 10:12:18;;;;;;;2.25;0.70;;;13.00;63.10;;;;;;2603645;54;20034;31
2023/11/06 10:14:53;;;;;;;4.32;1.30;;;13.10;61.10;;;;;;2603551;54;20057;31
2023/11/06 10:17:30;;;;;;;1.70;0.55;;;13.10;60.50;;;;;;2702264;39;20489;31
2023/11/06 10:20:13;;;;;;;8.45;1.40;;;13.20;61.10;;;;;;2702302;39;20604;31
2023/11/06 10:22:56;;;;;;;9.07;2.42;;;13.30;59.00;;;;;;2603723;54;20034;31
2023/11/06 10:25:32;;;;;;;18.15;5.65;;;13.40;59.70;;;;;;2603706;54;20034;31
2023/11/06 10:28:21;;;;;;;31.00;11.20;;;13.40;57.20;;;;;;2603511;54;20038;31
2023/11/06 10:30:57;;;;;;;8.35;2.08;;;13.50;55.50;;;;;;2603721;54;20057;31
2023/11/06 10:33:33;;;;;;;6.00;1.65;;;13.50;54.80;;;;;;2603750;54;20566;31
2023/11/06 10:36:17;;;;;;;3.95;0.80;;;13.50;55.70;;;;;;2622036;46;20128;31
2023/11/06 10:41:27;;;;;;;3.97;0.97;;;13.50;64.60;;;;;;2622364;46;20121;31
2023/11/06 10:44:06;;;;;;;1.50;0.80;;;13.50;65.00;;;;;;2622059;46;20009;31
2023/11/06 10:46:41;;;;;;;2.03;0.73;;;13.50;63.70;;;;;;2622138;46;20963;31
2023/11/06 10:49:27;;;;;;;1.98;0.50;;;13.50;61.00;;;;;;2622232;46;20026;31
2023/11/06 10:52:03;;;;;;;4.00;0.90;;;13.50;57.30;;;;;;2603404;54;20101;31
2023/11/06 10:54:39;;;;;;;6.75;0.85;;;13.50;55.90;;;;;;2603497;54;20616;31
2023/11/06 10:57:16;;;;;;;1.60;0.85;;;13.50;57.10;;;;;;2603976;54;20117;31
2023/11/06 10:59:54;;;;;;;;;;;13.50;61.30;;;;;;2604031;54;20184;31
2023/11/06 11:02:39;;;;;;;2.75;0.90;;;13.40;62.90;;;;;;2603662;54;19934;31
2023/11/06 11:05:17;;;;;;;1.63;0.60;;;13.40;77.70;;;;;;2603487;54;20577;31
2023/11/06 11:07:53;;;;;;;1.20;0.40;;;13.30;71.00;;;;;;2602914;54;20282;31
2023/11/06 11:10:29;;;;;;;1.45;0.38;;;13.40;64.60;;;;;;2603570;54;20023;31
2023/11/06 11:13:05;;;;;;;1.30;0.65;;;13.40;55.20;;;;;;2603531;54;20815;31
2023/11/06 11:15:44;;;;;;;1.52;0.60;;;13.50;56.70;;;;;;2603587;54;20034;31
2023/11/06 11:18:20;;;;;;;0.50;0.20;;;13.60;56.30;;;;;;2603364;54;20046;31
2023/11/06 11:20:58;;;;;;;;;;;13.80;56.50;;;;;;2603648;54;20049;31
2023/11/06 11:23:42;;;;;;;1.10;0.40;;;13.80;53.70;;;;;;2622141;46;20774;31
2023/11/06 11:26:20;;;;;;;0.53;0.20;;;13.90;53.20;;;;;;2603527;54;20109;31
2023/11/06 11:28:55;;;;;;;;;;;13.90;50.50;;;;;;2603695;54;20820;31
2023/11/06 11:31:39;;;;;;;2.95;0.50;;;13.90;49.90;;;;;;2622430;46;20731;31
2023/11/06 11:34:30;;;;;;;1.15;0.30;;;13.90;48.90;;;;;;2622066;46;20030;31
2023/11/06 11:37:28;;;;;;;1.40;0.40;;;13.90;48.10;;;;;;2622010;46;20960;31
2023/11/06 11:40:04;;;;;;;3.40;0.50;;;13.90;49.40;;;;;;2603479;54;20920;31
2023/11/06 11:42:39;;;;;;;;;;;13.90;48.30;;;;;;2603534;54;20026;31
2023/11/06 11:45:31;;;;;;;3.30;0.65;;;13.90;46.20;;;;;;2603720;54;20777;31
2023/11/06 11:48:10;;;;;;;1.35;0.30;;;13.90;48.50;;;;;;2621720;46;20077;31
2023/11/06 11:50:45;;;;;;;1.40;0.50;;;13.80;48.50;;;;;;2603138;54;20876;31
2023/11/06 11:53:35;;;;;;;1.42;0.50;;;13.80;51.60;;;;;;2603260;54;20235;31
2023/11/06 11:56:40;;;;;;;3.13;0.73;;;13.80;54.20;;;;;;2603366;54;20137;31
2023/11/06 11:59:16;;;;;;;0.57;0.25;;;13.80;57.10;;;;;;2621741;46;20962;31
2023/11/06 12:01:54;;;;;;;1.67;0.40;;;13.70;58.60;;;;;;2621849;46;20046;31
2023/11/06 12:04:33;;;;;;;5.90;1.40;;;13.60;72.30;;;;;;2603352;54;20089;31
2023/11/06 12:07:09;;;;;;;4.45;1.10;;;13.50;77.80;;;;;;2603413;54;20818;31
2023/11/06 12:09:56;;;;;;;1.60;0.50;;;13.60;80.80;;;;;;2603470;54;20027;31
2023/11/06 12:12:32;;;;;;;3.40;0.70;;;13.50;77.90;;;;;;2621556;46;25040;31
2023/11/06 12:15:12;;;;;;;6.47;1.80;;;13.50;82.10;;;;;;2603325;54;20038;31
2023/11/06 12:17:48;;;;;;;4.45;1.10;;;13.50;81.60;;;;;;2773115;31;21393;31
2023/11/06 12:20:26;;;;;;;6.38;2.28;;;13.50;76.30;;;;;;2603409;54;20270;31
2023/11/06 12:23:02;;;;;;;12.30;2.90;;;13.50;71.30;;;;;;2603469;54;20027;31
2023/11/06 12:25:39;;;;;;;11.98;4.05;;;13.50;72.20;;;;;;2603257;54;20869;31
2023/11/06 12:28:14;;;;;;;5.60;1.90;;;13.50;74.30;;;;;;2621974;46;20038;31
2023/11/06 12:30:49;;;;;;;20.48;5.22;;;13.40;68.00;;;;;;2603181;54;20097;31
2023/11/06 12:33:25;;;;;;;105.80;35.22;;;13.40;65.90;;;;;;2621719;46;20961;31
2023/11/06 12:36:03;;;;;;;13.95;6.47;;;13.30;68.50;;;;;;2603410;54;20026;31
2023/11/06 12:38:41;;;;;;;9.32;3.70;;;13.30;62.10;;;;;;2603211;54;20124;31
2023/11/06 12:41:18;;;;;;;14.23;6.30;;;13.30;61.40;;;;;;2622034;46;20823;31
2023/11/06 12:43:54;;;;;;;15.70;6.95;;;13.30;60.30;;;;;;2621550;46;20053;31
2023/11/06 12:46:46;;;;;;;22.40;9.43;;;13.30;59.60;;;;;;2621760;46;20034;31
2023/11/06 12:49:25;;;;;;;11.70;5.65;;;13.20;57.70;;;;;;2603177;54;20829;31
2023/11/06 12:52:06;;;;;;;5.18;2.63;;;13.30;54.00;;;;;;2603076;54;20945;31
2023/11/06 12:54:41;;;;;;;10.07;4.20;;;13.20;49.80;;;;;;2603013;54;20106;31
2023/11/06 12:57:18;;;;;;;4.20;1.13;;;13.20;51.40;;;;;;2603243;54;20980;31
2023/11/06 12:59:54;;;;;;;7.32;3.22;;;13.20;51.80;;;;;;2603387;54;20085;31
2023/11/06 13:02:31;;;;;;;5.18;2.65;;;13.20;54.00;;;;;;2603152;54;20120;31
2023/11/06 13:05:09;;;;;;;25.25;9.90;;;13.20;55.00;;;;;;2603203;54;20022;31
2023/11/06 13:07:51;;;;;;;45.00;19.97;;;13.20;54.00;;;;;;2622132;46;20849;31
2023/11/06 13:10:28;;;;;;;29.42;14.10;;;13.20;56.20;;;;;;2603268;54;20081;31
2023/11/06 13:13:05;;;;;;;34.45;12.57;;;13.20;57.30;;;;;;2621545;46;20026;31
2023/11/06 13:15:42;;;;;;;28.50;12.03;;;13.20;57.60;;;;;;2603275;54;20030;31
2023/11/06 13:18:19;;;;;;;15.23;7.05;;;13.20;59.80;;;;;;2603058;54;20891;31
2023/11/06 13:20:54;;;;;;;23.60;10.00;;;13.20;60.20;;;;;;2701794;39;20485;31
2023/11/06 13:23:32;;;;;;;24.80;12.33;;;13.10;60.10;;;;;;2602912;54;20060;31
2023/11/06 13:26:08;;;;;;;5.30;2.40;;;13.20;55.30;;;;;;2603172;54;20257;31
2023/11/06 13:28:47;;;;;;;15.93;9.10;;;13.10;52.60;;;;;;2603109;54;20896;31
2023/11/06 13:31:23;;;;;;;12.38;8.30;;;13.10;53.70;;;;;;2602726;54;20058;31
2023/11/06 13:33:59;;;;;;;1.87;0.77;;;13.10;54.70;;;;;;2621491;47;20034;31
2023/11/06 13:36:35;;;;;;;;;;;13.10;53.60;;;;;;2621442;47;20023;31
2023/11/06 13:39:14;;;;;;;8.10;5.07;;;13.20;53.50;;;;;;2621762;47;19997;31
2023/11/06 13:41:58;;;;;;;5.55;3.50;;;13.20;52.70;;;;;;2602985;54;20914;31
2023/11/06 13:44:35;;;;;;;29.48;18.48;;;13.20;54.20;;;;;;2603938;54;20049;31
2023/11/06 13:47:11;;;;;;;6.97;4.37;;;13.20;52.20;;;;;;2603607;54;20077;31
2023/11/06 13:49:49;;;;;;;6.23;4.13;;;13.10;51.30;;;;;;2603848;54;20833;31
2023/11/06 13:52:39;;;;;;;3.27;1.67;;;13.10;47.90;;;;;;2603651;54;20034;31